KDYT

Sky Harbor Airport

Duluth, Minnesota, USA
METAR KDYT 231415Z AUTO 00000KT 3SM -SN BKN015 BKN020 OVC030 M04/M05 A3003 RMK AO2
Observed Flight Rules
Feb-23 @ 14:15 UTC (19 minutes ago) Marginal Visual Flight Rules
Wind Visibility Clouds Conditions
Calm 3 miles
  • Broken at 1,500' AGL
  • Broken at 2,000' AGL
  • Overcast at 3,000' AGL
  • Light Snow
Temperatures Readings
Current -4°C / 25°F
Dewpoint -5°C / 23°F
Humidity 93%
Altimeter 30.03" Hg
Pressure 1017 hPa
Elevation 186
METAR KDYT 231415Z AUTO 00000KT 3SM -SN BKN015 BKN020 OVC030 M04/M05 A3003 RMK AO2
Observed Flight Rules
Feb-23 @ 14:15 UTC
(19 minutes ago)
MVFR
Wind Visibility
Calm 3 miles
Clouds
  • Broken at 1,500' AGL
  • Broken at 2,000' AGL
  • Overcast at 3,000' AGL
Conditions
  • Light Snow
Temperature Dewpoint
-4°C / 25°F -5°C / 23°F
Humidity Altimeter Pressure
93% 30.03" Hg 1017 hPa